Terminal Aerodrome Forecast
Issued by NWS

Home | Current Version | Previous Version | Text Only | Print | Product List | Glossary On
Versions: 1 2 3 4 5 6 7 8 9 10 11 12 13 14 15 16 17 18 19
000
FTUS45 KSLC 310543
TAFLGU
TAF
KLGU 310543Z 3106/0106 31009KT P6SM FEW100
     FM311900 35009KT P6SM SKC
     FM010200 VRB05KT P6SM FEW200=

USA.gov is the U.S. government's official web portal to all federal, state and local government web resources and services.